sensor_id;sensor_type;location;lat;lon;timestamp;P1;durP1;ratioP1;P2;durP2;ratioP2
45252;SDS011;63171;50.520;30.486;2022-11-11T00:01:08;28.48;;;23.48;;
45252;SDS011;63171;50.520;30.486;2022-11-11T00:02:20;28.73;;;22.30;;
45252;SDS011;63171;50.520;30.486;2022-11-11T00:03:29;31.50;;;24.80;;
45252;SDS011;63171;50.520;30.486;2022-11-11T00:04:38;29.40;;;22.65;;
45252;SDS011;63171;50.520;30.486;2022-11-11T00:05:47;27.00;;;21.75;;
45252;SDS011;63171;50.520;30.486;2022-11-11T00:06:57;28.05;;;22.13;;
45252;SDS011;63171;50.520;30.486;2022-11-11T00:08:06;26.70;;;23.38;;
45252;SDS011;63171;50.520;30.486;2022-11-11T00:10:24;33.80;;;24.20;;
45252;SDS011;63171;50.520;30.486;2022-11-11T00:11:35;30.60;;;23.65;;
45252;SDS011;63171;50.520;30.486;2022-11-11T00:12:45;25.00;;;21.13;;
45252;SDS011;63171;50.520;30.486;2022-11-11T00:13:53;30.85;;;24.08;;
45252;SDS011;63171;50.520;30.486;2022-11-11T00:15:05;31.77;;;24.25;;
45252;SDS011;63171;50.520;30.486;2022-11-11T00:16:15;33.20;;;23.55;;
45252;SDS011;63171;50.520;30.486;2022-11-11T00:17:25;33.83;;;25.67;;
45252;SDS011;63171;50.520;30.486;2022-11-11T00:18:53;31.92;;;23.58;;
45252;SDS011;63171;50.520;30.486;2022-11-11T00:20:20;25.95;;;21.50;;
45252;SDS011;63171;50.520;30.486;2022-11-11T00:21:47;27.25;;;21.90;;
45252;SDS011;63171;50.520;30.486;2022-11-11T00:23:19;30.55;;;24.98;;
45252;SDS011;63171;50.520;30.486;2022-11-11T00:24:47;31.02;;;24.23;;
45252;SDS011;63171;50.520;30.486;2022-11-11T00:26:15;30.15;;;22.52;;
45252;SDS011;63171;50.520;30.486;2022-11-11T00:27:24;23.67;;;20.98;;
45252;SDS011;63171;50.520;30.486;2022-11-11T00:28:33;22.50;;;20.10;;
45252;SDS011;63171;50.520;30.486;2022-11-11T00:29:44;25.20;;;20.65;;
45252;SDS011;63171;50.520;30.486;2022-11-11T00:31:01;30.92;;;22.05;;
45252;SDS011;63171;50.520;30.486;2022-11-11T00:32:11;24.55;;;19.70;;
45252;SDS011;63171;50.520;30.486;2022-11-11T00:33:36;25.50;;;19.92;;
45252;SDS011;63171;50.520;30.486;2022-11-11T00:34:45;25.27;;;21.17;;
45252;SDS011;63171;50.520;30.486;2022-11-11T00:36:09;25.88;;;21.02;;
45252;SDS011;63171;50.520;30.486;2022-11-11T00:37:18;25.25;;;21.38;;
45252;SDS011;63171;50.520;30.486;2022-11-11T00:38:27;24.58;;;20.63;;
45252;SDS011;63171;50.520;30.486;2022-11-11T00:39:55;23.35;;;20.25;;
45252;SDS011;63171;50.520;30.486;2022-11-11T00:41:05;23.02;;;19.13;;
45252;SDS011;63171;50.520;30.486;2022-11-11T00:42:13;22.25;;;18.85;;
45252;SDS011;63171;50.520;30.486;2022-11-11T00:43:23;26.15;;;20.67;;
45252;SDS011;63171;50.520;30.486;2022-11-11T00:44:31;23.42;;;18.75;;
45252;SDS011;63171;50.520;30.486;2022-11-11T00:45:41;22.02;;;18.48;;
45252;SDS011;63171;50.520;30.486;2022-11-11T00:46:51;23.50;;;19.65;;
45252;SDS011;63171;50.520;30.486;2022-11-11T00:48:18;25.27;;;19.33;;
45252;SDS011;63171;50.520;30.486;2022-11-11T00:49:45;21.50;;;18.58;;
45252;SDS011;63171;50.520;30.486;2022-11-11T00:51:13;31.20;;;22.30;;
45252;SDS011;63171;50.520;30.486;2022-11-11T00:52:22;25.80;;;20.25;;
45252;SDS011;63171;50.520;30.486;2022-11-11T00:53:31;21.40;;;18.90;;
45252;SDS011;63171;50.520;30.486;2022-11-11T00:54:42;24.55;;;19.38;;
45252;SDS011;63171;50.520;30.486;2022-11-11T00:55:50;22.23;;;19.10;;
45252;SDS011;63171;50.520;30.486;2022-11-11T00:57:00;26.35;;;18.88;;
45252;SDS011;63171;50.520;30.486;2022-11-11T00:58:08;22.30;;;19.35;;
45252;SDS011;63171;50.520;30.486;2022-11-11T00:59:18;22.40;;;18.98;;
45252;SDS011;63171;50.520;30.486;2022-11-11T01:02:47;21.23;;;17.50;;
45252;SDS011;63171;50.520;30.486;2022-11-11T01:03:57;23.85;;;19.67;;
45252;SDS011;63171;50.520;30.486;2022-11-11T01:05:06;21.75;;;18.52;;
45252;SDS011;63171;50.520;30.486;2022-11-11T01:07:24;22.67;;;17.83;;
45252;SDS011;63171;50.520;30.486;2022-11-11T01:08:34;19.85;;;16.15;;
45252;SDS011;63171;50.520;30.486;2022-11-11T01:09:43;19.80;;;17.52;;
45252;SDS011;63171;50.520;30.486;2022-11-11T01:10:52;20.63;;;17.35;;
45252;SDS011;63171;50.520;30.486;2022-11-11T01:12:01;23.38;;;17.92;;
45252;SDS011;63171;50.520;30.486;2022-11-11T01:13:15;22.30;;;18.08;;
45252;SDS011;63171;50.520;30.486;2022-11-11T01:14:26;21.50;;;17.75;;
45252;SDS011;63171;50.520;30.486;2022-11-11T01:15:35;20.63;;;17.58;;
45252;SDS011;63171;50.520;30.486;2022-11-11T01:16:44;17.52;;;15.65;;
45252;SDS011;63171;50.520;30.486;2022-11-11T01:17:55;19.48;;;17.30;;
45252;SDS011;63171;50.520;30.486;2022-11-11T01:20:14;21.33;;;17.10;;
45252;SDS011;63171;50.520;30.486;2022-11-11T01:21:23;21.63;;;17.08;;
45252;SDS011;63171;50.520;30.486;2022-11-11T01:22:33;19.98;;;16.75;;
45252;SDS011;63171;50.520;30.486;2022-11-11T01:23:42;20.55;;;17.15;;
45252;SDS011;63171;50.520;30.486;2022-11-11T01:24:54;21.45;;;16.75;;
45252;SDS011;63171;50.520;30.486;2022-11-11T01:26:03;20.00;;;17.80;;
45252;SDS011;63171;50.520;30.486;2022-11-11T01:27:14;18.90;;;14.43;;
45252;SDS011;63171;50.520;30.486;2022-11-11T01:28:23;21.30;;;16.45;;
45252;SDS011;63171;50.520;30.486;2022-11-11T01:29:32;20.23;;;15.90;;
45252;SDS011;63171;50.520;30.486;2022-11-11T01:30:42;20.35;;;16.05;;
45252;SDS011;63171;50.520;30.486;2022-11-11T01:31:51;17.80;;;15.43;;
45252;SDS011;63171;50.520;30.486;2022-11-11T01:33:02;20.92;;;16.88;;
45252;SDS011;63171;50.520;30.486;2022-11-11T01:34:12;18.50;;;15.70;;
45252;SDS011;63171;50.520;30.486;2022-11-11T01:35:21;17.67;;;14.98;;
45252;SDS011;63171;50.520;30.486;2022-11-11T01:36:30;17.23;;;14.98;;
45252;SDS011;63171;50.520;30.486;2022-11-11T01:37:40;17.00;;;13.95;;
45252;SDS011;63171;50.520;30.486;2022-11-11T01:38:49;15.73;;;14.05;;
45252;SDS011;63171;50.520;30.486;2022-11-11T01:40:00;19.35;;;15.25;;
45252;SDS011;63171;50.520;30.486;2022-11-11T01:41:10;18.38;;;14.82;;
45252;SDS011;63171;50.520;30.486;2022-11-11T01:42:47;18.55;;;15.25;;
45252;SDS011;63171;50.520;30.486;2022-11-11T01:43:57;17.45;;;13.68;;
45252;SDS011;63171;50.520;30.486;2022-11-11T01:46:32;16.65;;;14.35;;
45252;SDS011;63171;50.520;30.486;2022-11-11T01:47:43;13.80;;;12.40;;
45252;SDS011;63171;50.520;30.486;2022-11-11T01:49:20;15.63;;;12.40;;
45252;SDS011;63171;50.520;30.486;2022-11-11T01:50:34;14.85;;;13.20;;
45252;SDS011;63171;50.520;30.486;2022-11-11T01:51:45;13.77;;;11.85;;
45252;SDS011;63171;50.520;30.486;2022-11-11T01:52:57;14.73;;;12.25;;
45252;SDS011;63171;50.520;30.486;2022-11-11T01:54:07;13.57;;;11.98;;
45252;SDS011;63171;50.520;30.486;2022-11-11T01:55:21;14.48;;;12.85;;
45252;SDS011;63171;50.520;30.486;2022-11-11T01:56:32;15.48;;;12.60;;
45252;SDS011;63171;50.520;30.486;2022-11-11T01:57:42;14.05;;;12.23;;
45252;SDS011;63171;50.520;30.486;2022-11-11T01:58:57;15.05;;;12.30;;
45252;SDS011;63171;50.520;30.486;2022-11-11T02:00:10;15.18;;;12.38;;
45252;SDS011;63171;50.520;30.486;2022-11-11T02:01:22;14.00;;;12.50;;
45252;SDS011;63171;50.520;30.486;2022-11-11T02:02:31;14.02;;;12.52;;
45252;SDS011;63171;50.520;30.486;2022-11-11T02:03:45;14.30;;;12.25;;
45252;SDS011;63171;50.520;30.486;2022-11-11T02:05:14;13.27;;;11.90;;
45252;SDS011;63171;50.520;30.486;2022-11-11T02:06:43;13.10;;;10.40;;
45252;SDS011;63171;50.520;30.486;2022-11-11T02:07:53;12.27;;;10.82;;
45252;SDS011;63171;50.520;30.486;2022-11-11T02:09:03;13.00;;;11.68;;
45252;SDS011;63171;50.520;30.486;2022-11-11T02:10:14;13.40;;;11.63;;
45252;SDS011;63171;50.520;30.486;2022-11-11T02:11:25;14.18;;;11.88;;
45252;SDS011;63171;50.520;30.486;2022-11-11T02:12:55;13.35;;;11.55;;
45252;SDS011;63171;50.520;30.486;2022-11-11T02:14:22;14.48;;;10.80;;
45252;SDS011;63171;50.520;30.486;2022-11-11T02:15:43;14.35;;;11.82;;
45252;SDS011;63171;50.520;30.486;2022-11-11T02:16:54;14.25;;;10.45;;
45252;SDS011;63171;50.520;30.486;2022-11-11T02:18:03;12.30;;;11.05;;
45252;SDS011;63171;50.520;30.486;2022-11-11T02:19:13;12.98;;;11.73;;
45252;SDS011;63171;50.520;30.486;2022-11-11T02:20:31;12.82;;;11.63;;
45252;SDS011;63171;50.520;30.486;2022-11-11T02:21:46;14.02;;;11.95;;
45252;SDS011;63171;50.520;30.486;2022-11-11T02:22:59;11.90;;;10.70;;
45252;SDS011;63171;50.520;30.486;2022-11-11T02:24:14;15.23;;;11.98;;
45252;SDS011;63171;50.520;30.486;2022-11-11T02:25:28;14.90;;;11.55;;
45252;SDS011;63171;50.520;30.486;2022-11-11T02:26:39;14.52;;;11.35;;
45252;SDS011;63171;50.520;30.486;2022-11-11T02:27:50;11.55;;;10.45;;
45252;SDS011;63171;50.520;30.486;2022-11-11T02:29:03;12.25;;;11.05;;
45252;SDS011;63171;50.520;30.486;2022-11-11T02:30:16;12.18;;;10.98;;
45252;SDS011;63171;50.520;30.486;2022-11-11T02:31:28;11.90;;;10.70;;
45252;SDS011;63171;50.520;30.486;2022-11-11T02:32:38;14.60;;;10.77;;
45252;SDS011;63171;50.520;30.486;2022-11-11T02:33:48;13.73;;;12.23;;
45252;SDS011;63171;50.520;30.486;2022-11-11T02:34:56;13.13;;;11.73;;
45252;SDS011;63171;50.520;30.486;2022-11-11T02:36:07;14.32;;;11.25;;
45252;SDS011;63171;50.520;30.486;2022-11-11T02:37:24;12.63;;;11.30;;
45252;SDS011;63171;50.520;30.486;2022-11-11T02:38:34;13.20;;;11.57;;
45252;SDS011;63171;50.520;30.486;2022-11-11T02:39:45;11.27;;;10.07;;
45252;SDS011;63171;50.520;30.486;2022-11-11T02:40:56;12.88;;;11.35;;
45252;SDS011;63171;50.520;30.486;2022-11-11T02:42:23;13.23;;;11.45;;
45252;SDS011;63171;50.520;30.486;2022-11-11T02:43:33;12.68;;;11.38;;
45252;SDS011;63171;50.520;30.486;2022-11-11T02:44:42;12.95;;;11.55;;
45252;SDS011;63171;50.520;30.486;2022-11-11T02:45:51;12.73;;;11.43;;
45252;SDS011;63171;50.520;30.486;2022-11-11T02:47:01;13.25;;;11.93;;
45252;SDS011;63171;50.520;30.486;2022-11-11T02:48:10;12.90;;;11.68;;
45252;SDS011;63171;50.520;30.486;2022-11-11T02:49:20;13.32;;;11.98;;
45252;SDS011;63171;50.520;30.486;2022-11-11T02:50:29;12.43;;;11.20;;
45252;SDS011;63171;50.520;30.486;2022-11-11T02:51:38;12.48;;;10.95;;
45252;SDS011;63171;50.520;30.486;2022-11-11T02:52:47;14.48;;;12.50;;
45252;SDS011;63171;50.520;30.486;2022-11-11T02:53:57;12.88;;;11.57;;
45252;SDS011;63171;50.520;30.486;2022-11-11T02:55:11;14.65;;;11.57;;
45252;SDS011;63171;50.520;30.486;2022-11-11T02:56:21;14.32;;;11.30;;
45252;SDS011;63171;50.520;30.486;2022-11-11T02:57:44;16.77;;;12.38;;
45252;SDS011;63171;50.520;30.486;2022-11-11T02:58:54;12.68;;;10.45;;
45252;SDS011;63171;50.520;30.486;2022-11-11T03:00:03;14.50;;;10.85;;
45252;SDS011;63171;50.520;30.486;2022-11-11T03:01:14;13.93;;;12.30;;
45252;SDS011;63171;50.520;30.486;2022-11-11T03:02:26;13.05;;;11.73;;
45252;SDS011;63171;50.520;30.486;2022-11-11T03:03:36;13.93;;;11.40;;
45252;SDS011;63171;50.520;30.486;2022-11-11T03:04:44;14.35;;;11.45;;
45252;SDS011;63171;50.520;30.486;2022-11-11T03:05:54;11.98;;;10.57;;
45252;SDS011;63171;50.520;30.486;2022-11-11T03:07:03;14.52;;;11.07;;
45252;SDS011;63171;50.520;30.486;2022-11-11T03:08:14;12.00;;;10.50;;
45252;SDS011;63171;50.520;30.486;2022-11-11T03:09:23;12.60;;;10.65;;
45252;SDS011;63171;50.520;30.486;2022-11-11T03:10:34;13.35;;;11.32;;
45252;SDS011;63171;50.520;30.486;2022-11-11T03:11:43;13.95;;;11.52;;
45252;SDS011;63171;50.520;30.486;2022-11-11T03:12:53;13.25;;;11.88;;
45252;SDS011;63171;50.520;30.486;2022-11-11T03:14:01;13.45;;;11.43;;
45252;SDS011;63171;50.520;30.486;2022-11-11T03:15:11;14.70;;;13.25;;
45252;SDS011;63171;50.520;30.486;2022-11-11T03:16:21;12.95;;;11.23;;
45252;SDS011;63171;50.520;30.486;2022-11-11T03:17:51;15.93;;;12.52;;
45252;SDS011;63171;50.520;30.486;2022-11-11T03:18:59;13.65;;;12.23;;
45252;SDS011;63171;50.520;30.486;2022-11-11T03:20:09;13.32;;;11.02;;
45252;SDS011;63171;50.520;30.486;2022-11-11T03:21:38;15.18;;;12.00;;
45252;SDS011;63171;50.520;30.486;2022-11-11T03:22:57;13.65;;;12.13;;
45252;SDS011;63171;50.520;30.486;2022-11-11T03:24:07;13.05;;;11.63;;
45252;SDS011;63171;50.520;30.486;2022-11-11T03:25:17;13.32;;;11.93;;
45252;SDS011;63171;50.520;30.486;2022-11-11T03:26:45;12.02;;;10.77;;
45252;SDS011;63171;50.520;30.486;2022-11-11T03:27:54;13.00;;;11.23;;
45252;SDS011;63171;50.520;30.486;2022-11-11T03:29:04;14.93;;;12.50;;
45252;SDS011;63171;50.520;30.486;2022-11-11T03:30:13;14.13;;;10.88;;
45252;SDS011;63171;50.520;30.486;2022-11-11T03:31:23;16.77;;;11.93;;
45252;SDS011;63171;50.520;30.486;2022-11-11T03:32:32;15.70;;;12.60;;
45252;SDS011;63171;50.520;30.486;2022-11-11T03:33:42;13.50;;;12.07;;
45252;SDS011;63171;50.520;30.486;2022-11-11T03:34:51;14.90;;;13.35;;
45252;SDS011;63171;50.520;30.486;2022-11-11T03:36:00;15.75;;;13.98;;
45252;SDS011;63171;50.520;30.486;2022-11-11T03:37:10;17.33;;;12.95;;
45252;SDS011;63171;50.520;30.486;2022-11-11T03:38:37;16.40;;;12.82;;
45252;SDS011;63171;50.520;30.486;2022-11-11T03:39:47;15.32;;;13.55;;
45252;SDS011;63171;50.520;30.486;2022-11-11T03:40:56;16.48;;;14.05;;
45252;SDS011;63171;50.520;30.486;2022-11-11T03:42:07;18.80;;;13.90;;
45252;SDS011;63171;50.520;30.486;2022-11-11T03:43:17;17.75;;;12.98;;
45252;SDS011;63171;50.520;30.486;2022-11-11T03:44:27;14.27;;;12.25;;
45252;SDS011;63171;50.520;30.486;2022-11-11T03:45:36;16.05;;;14.10;;
45252;SDS011;63171;50.520;30.486;2022-11-11T03:46:46;15.77;;;14.07;;
45252;SDS011;63171;50.520;30.486;2022-11-11T03:47:55;14.32;;;12.82;;
45252;SDS011;63171;50.520;30.486;2022-11-11T03:49:05;16.17;;;12.45;;
45252;SDS011;63171;50.520;30.486;2022-11-11T03:50:13;15.13;;;13.50;;
45252;SDS011;63171;50.520;30.486;2022-11-11T03:51:23;15.57;;;12.25;;
45252;SDS011;63171;50.520;30.486;2022-11-11T03:52:32;16.67;;;14.00;;
45252;SDS011;63171;50.520;30.486;2022-11-11T03:53:42;17.50;;;14.77;;
45252;SDS011;63171;50.520;30.486;2022-11-11T03:54:51;20.38;;;15.27;;
45252;SDS011;63171;50.520;30.486;2022-11-11T03:56:00;17.90;;;14.82;;
45252;SDS011;63171;50.520;30.486;2022-11-11T03:57:10;17.35;;;13.55;;
45252;SDS011;63171;50.520;30.486;2022-11-11T03:58:38;17.83;;;13.40;;
45252;SDS011;63171;50.520;30.486;2022-11-11T03:59:47;18.38;;;13.52;;
45252;SDS011;63171;50.520;30.486;2022-11-11T04:00:56;17.85;;;13.93;;
45252;SDS011;63171;50.520;30.486;2022-11-11T04:02:07;16.83;;;15.02;;
45252;SDS011;63171;50.520;30.486;2022-11-11T04:03:37;16.08;;;14.38;;
45252;SDS011;63171;50.520;30.486;2022-11-11T04:05:05;14.20;;;12.55;;
45252;SDS011;63171;50.520;30.486;2022-11-11T04:06:33;15.85;;;13.10;;
45252;SDS011;63171;50.520;30.486;2022-11-11T04:08:00;20.27;;;15.90;;
45252;SDS011;63171;50.520;30.486;2022-11-11T04:09:27;16.38;;;14.18;;
45252;SDS011;63171;50.520;30.486;2022-11-11T04:10:55;15.70;;;13.10;;
45252;SDS011;63171;50.520;30.486;2022-11-11T04:12:06;15.95;;;14.20;;
45252;SDS011;63171;50.520;30.486;2022-11-11T04:13:16;20.30;;;15.07;;
45252;SDS011;63171;50.520;30.486;2022-11-11T04:14:43;19.00;;;15.05;;
45252;SDS011;63171;50.520;30.486;2022-11-11T04:16:11;21.73;;;15.85;;
45252;SDS011;63171;50.520;30.486;2022-11-11T04:17:21;19.25;;;14.52;;
45252;SDS011;63171;50.520;30.486;2022-11-11T04:18:29;19.63;;;15.07;;
45252;SDS011;63171;50.520;30.486;2022-11-11T04:19:56;18.05;;;14.55;;
45252;SDS011;63171;50.520;30.486;2022-11-11T04:21:24;20.70;;;16.13;;
45252;SDS011;63171;50.520;30.486;2022-11-11T04:22:52;17.85;;;14.00;;
45252;SDS011;63171;50.520;30.486;2022-11-11T04:24:00;17.52;;;15.68;;
45252;SDS011;63171;50.520;30.486;2022-11-11T04:25:10;21.38;;;16.33;;
45252;SDS011;63171;50.520;30.486;2022-11-11T04:26:37;18.00;;;15.63;;
45252;SDS011;63171;50.520;30.486;2022-11-11T04:27:46;21.35;;;15.93;;
45252;SDS011;63171;50.520;30.486;2022-11-11T04:29:17;19.35;;;16.55;;
45252;SDS011;63171;50.520;30.486;2022-11-11T04:30:38;20.80;;;16.65;;
45252;SDS011;63171;50.520;30.486;2022-11-11T04:31:46;19.02;;;15.20;;
45252;SDS011;63171;50.520;30.486;2022-11-11T04:33:09;20.08;;;16.58;;
45252;SDS011;63171;50.520;30.486;2022-11-11T04:34:19;16.50;;;14.25;;
45252;SDS011;63171;50.520;30.486;2022-11-11T04:35:27;17.02;;;14.98;;
45252;SDS011;63171;50.520;30.486;2022-11-11T04:36:36;18.02;;;16.15;;
45252;SDS011;63171;50.520;30.486;2022-11-11T04:37:46;20.27;;;16.05;;
45252;SDS011;63171;50.520;30.486;2022-11-11T04:38:57;18.40;;;15.55;;
45252;SDS011;63171;50.520;30.486;2022-11-11T04:40:24;19.95;;;16.52;;
45252;SDS011;63171;50.520;30.486;2022-11-11T04:41:51;18.60;;;15.77;;
45252;SDS011;63171;50.520;30.486;2022-11-11T04:43:00;21.13;;;15.40;;
45252;SDS011;63171;50.520;30.486;2022-11-11T04:44:10;19.40;;;16.48;;
45252;SDS011;63171;50.520;30.486;2022-11-11T04:45:39;19.65;;;15.25;;
45252;SDS011;63171;50.520;30.486;2022-11-11T04:46:48;18.05;;;16.13;;
45252;SDS011;63171;50.520;30.486;2022-11-11T04:47:57;18.40;;;15.25;;
45252;SDS011;63171;50.520;30.486;2022-11-11T04:49:08;21.63;;;17.65;;
45252;SDS011;63171;50.520;30.486;2022-11-11T04:50:17;21.70;;;16.23;;
45252;SDS011;63171;50.520;30.486;2022-11-11T04:51:26;21.25;;;17.00;;
45252;SDS011;63171;50.520;30.486;2022-11-11T04:52:55;21.20;;;16.42;;
45252;SDS011;63171;50.520;30.486;2022-11-11T04:54:05;18.80;;;16.08;;
45252;SDS011;63171;50.520;30.486;2022-11-11T04:55:14;23.50;;;16.25;;
45252;SDS011;63171;50.520;30.486;2022-11-11T04:56:42;21.98;;;16.90;;
45252;SDS011;63171;50.520;30.486;2022-11-11T04:57:57;25.77;;;17.58;;
45252;SDS011;63171;50.520;30.486;2022-11-11T04:59:06;19.20;;;17.17;;
45252;SDS011;63171;50.520;30.486;2022-11-11T05:00:24;20.10;;;16.23;;
45252;SDS011;63171;50.520;30.486;2022-11-11T05:01:35;18.85;;;15.35;;
45252;SDS011;63171;50.520;30.486;2022-11-11T05:03:03;23.08;;;17.48;;
45252;SDS011;63171;50.520;30.486;2022-11-11T05:04:24;18.88;;;16.45;;
45252;SDS011;63171;50.520;30.486;2022-11-11T05:05:32;24.75;;;17.08;;
45252;SDS011;63171;50.520;30.486;2022-11-11T05:07:02;19.73;;;16.10;;
45252;SDS011;63171;50.520;30.486;2022-11-11T05:08:30;23.10;;;17.05;;
45252;SDS011;63171;50.520;30.486;2022-11-11T05:09:58;21.20;;;16.65;;
45252;SDS011;63171;50.520;30.486;2022-11-11T05:11:07;20.45;;;16.92;;
45252;SDS011;63171;50.520;30.486;2022-11-11T05:12:16;19.75;;;16.77;;
45252;SDS011;63171;50.520;30.486;2022-11-11T05:13:25;20.20;;;15.98;;
45252;SDS011;63171;50.520;30.486;2022-11-11T05:14:52;20.83;;;17.63;;
45252;SDS011;63171;50.520;30.486;2022-11-11T05:16:21;24.55;;;17.52;;
45252;SDS011;63171;50.520;30.486;2022-11-11T05:19:18;20.73;;;18.27;;
45252;SDS011;63171;50.520;30.486;2022-11-11T05:20:51;19.88;;;16.50;;
45252;SDS011;63171;50.520;30.486;2022-11-11T05:22:26;20.10;;;16.27;;
45252;SDS011;63171;50.520;30.486;2022-11-11T05:23:38;21.25;;;15.90;;
45252;SDS011;63171;50.520;30.486;2022-11-11T05:25:06;20.92;;;18.05;;
45252;SDS011;63171;50.520;30.486;2022-11-11T05:26:33;24.92;;;17.77;;
45252;SDS011;63171;50.520;30.486;2022-11-11T05:27:42;25.48;;;17.55;;
45252;SDS011;63171;50.520;30.486;2022-11-11T05:28:52;20.45;;;16.48;;
45252;SDS011;63171;50.520;30.486;2022-11-11T05:30:01;22.73;;;18.17;;
45252;SDS011;63171;50.520;30.486;2022-11-11T05:31:11;24.20;;;17.45;;
45252;SDS011;63171;50.520;30.486;2022-11-11T05:32:20;27.25;;;18.77;;
45252;SDS011;63171;50.520;30.486;2022-11-11T05:33:32;19.08;;;16.77;;
45252;SDS011;63171;50.520;30.486;2022-11-11T05:34:41;23.77;;;18.25;;
45252;SDS011;63171;50.520;30.486;2022-11-11T05:35:51;19.85;;;17.73;;
45252;SDS011;63171;50.520;30.486;2022-11-11T05:37:00;20.40;;;16.13;;
45252;SDS011;63171;50.520;30.486;2022-11-11T05:38:08;25.13;;;19.10;;
45252;SDS011;63171;50.520;30.486;2022-11-11T05:39:30;22.98;;;18.60;;
45252;SDS011;63171;50.520;30.486;2022-11-11T05:40:39;23.42;;;18.20;;
45252;SDS011;63171;50.520;30.486;2022-11-11T05:41:49;26.38;;;18.05;;
45252;SDS011;63171;50.520;30.486;2022-11-11T05:42:58;21.70;;;17.27;;
45252;SDS011;63171;50.520;30.486;2022-11-11T05:44:07;21.67;;;16.88;;
45252;SDS011;63171;50.520;30.486;2022-11-11T05:45:16;23.38;;;18.77;;
45252;SDS011;63171;50.520;30.486;2022-11-11T05:46:26;26.08;;;20.00;;
45252;SDS011;63171;50.520;30.486;2022-11-11T05:47:35;24.27;;;18.23;;
45252;SDS011;63171;50.520;30.486;2022-11-11T05:48:46;24.92;;;20.60;;
45252;SDS011;63171;50.520;30.486;2022-11-11T05:50:15;23.25;;;19.33;;
45252;SDS011;63171;50.520;30.486;2022-11-11T05:51:25;26.52;;;20.58;;
45252;SDS011;63171;50.520;30.486;2022-11-11T05:52:36;22.98;;;18.85;;
45252;SDS011;63171;50.520;30.486;2022-11-11T05:53:46;27.30;;;22.55;;
45252;SDS011;63171;50.520;30.486;2022-11-11T05:54:54;28.40;;;23.85;;
45252;SDS011;63171;50.520;30.486;2022-11-11T05:56:04;25.70;;;20.75;;
45252;SDS011;63171;50.520;30.486;2022-11-11T05:57:13;32.08;;;23.58;;
45252;SDS011;63171;50.520;30.486;2022-11-11T05:58:23;32.17;;;23.70;;
45252;SDS011;63171;50.520;30.486;2022-11-11T05:59:31;29.98;;;23.38;;
45252;SDS011;63171;50.520;30.486;2022-11-11T06:00:41;28.08;;;22.25;;
45252;SDS011;63171;50.520;30.486;2022-11-11T06:01:50;26.27;;;20.52;;
45252;SDS011;63171;50.520;30.486;2022-11-11T06:03:03;26.02;;;20.75;;
45252;SDS011;63171;50.520;30.486;2022-11-11T06:04:15;27.10;;;21.25;;
45252;SDS011;63171;50.520;30.486;2022-11-11T06:05:24;26.35;;;20.83;;
45252;SDS011;63171;50.520;30.486;2022-11-11T06:06:33;27.58;;;21.73;;
45252;SDS011;63171;50.520;30.486;2022-11-11T06:08:51;26.17;;;19.95;;
45252;SDS011;63171;50.520;30.486;2022-11-11T06:10:01;20.33;;;17.50;;
45252;SDS011;63171;50.520;30.486;2022-11-11T06:11:25;24.75;;;19.42;;
45252;SDS011;63171;50.520;30.486;2022-11-11T06:12:40;24.92;;;19.73;;
45252;SDS011;63171;50.520;30.486;2022-11-11T06:14:09;22.60;;;18.55;;
45252;SDS011;63171;50.520;30.486;2022-11-11T06:15:18;22.95;;;17.48;;
45252;SDS011;63171;50.520;30.486;2022-11-11T06:16:27;24.95;;;19.33;;
45252;SDS011;63171;50.520;30.486;2022-11-11T06:17:36;29.33;;;20.23;;
45252;SDS011;63171;50.520;30.486;2022-11-11T06:18:45;24.45;;;20.08;;
45252;SDS011;63171;50.520;30.486;2022-11-11T06:19:56;26.48;;;19.67;;
45252;SDS011;63171;50.520;30.486;2022-11-11T06:21:08;23.85;;;19.30;;
45252;SDS011;63171;50.520;30.486;2022-11-11T06:22:18;25.20;;;17.63;;
45252;SDS011;63171;50.520;30.486;2022-11-11T06:23:47;24.48;;;19.55;;
45252;SDS011;63171;50.520;30.486;2022-11-11T06:24:57;22.38;;;18.08;;
45252;SDS011;63171;50.520;30.486;2022-11-11T06:26:20;28.80;;;21.23;;
45252;SDS011;63171;50.520;30.486;2022-11-11T06:27:30;23.80;;;19.25;;
45252;SDS011;63171;50.520;30.486;2022-11-11T06:28:39;27.67;;;20.20;;
45252;SDS011;63171;50.520;30.486;2022-11-11T06:29:50;22.60;;;18.63;;
45252;SDS011;63171;50.520;30.486;2022-11-11T06:30:59;25.80;;;19.83;;
45252;SDS011;63171;50.520;30.486;2022-11-11T06:32:09;26.13;;;19.08;;
45252;SDS011;63171;50.520;30.486;2022-11-11T06:33:18;24.83;;;19.65;;
45252;SDS011;63171;50.520;30.486;2022-11-11T06:34:28;28.15;;;21.15;;
45252;SDS011;63171;50.520;30.486;2022-11-11T06:35:42;23.92;;;19.42;;
45252;SDS011;63171;50.520;30.486;2022-11-11T06:36:51;28.83;;;20.67;;
45252;SDS011;63171;50.520;30.486;2022-11-11T06:38:01;25.20;;;20.13;;
45252;SDS011;63171;50.520;30.486;2022-11-11T06:39:10;25.20;;;20.02;;
45252;SDS011;63171;50.520;30.486;2022-11-11T06:40:20;28.98;;;20.98;;
45252;SDS011;63171;50.520;30.486;2022-11-11T06:41:29;25.30;;;18.67;;
45252;SDS011;63171;50.520;30.486;2022-11-11T06:42:38;29.60;;;20.77;;
45252;SDS011;63171;50.520;30.486;2022-11-11T06:43:47;31.77;;;22.33;;
45252;SDS011;63171;50.520;30.486;2022-11-11T06:44:56;29.50;;;19.30;;
45252;SDS011;63171;50.520;30.486;2022-11-11T06:46:05;32.75;;;21.65;;
45252;SDS011;63171;50.520;30.486;2022-11-11T06:47:15;32.72;;;23.13;;
45252;SDS011;63171;50.520;30.486;2022-11-11T06:48:25;28.20;;;20.92;;
45252;SDS011;63171;50.520;30.486;2022-11-11T06:49:36;32.17;;;23.40;;
45252;SDS011;63171;50.520;30.486;2022-11-11T06:50:45;30.23;;;21.50;;
45252;SDS011;63171;50.520;30.486;2022-11-11T06:51:55;32.35;;;24.25;;
45252;SDS011;63171;50.520;30.486;2022-11-11T06:53:04;29.40;;;21.98;;
45252;SDS011;63171;50.520;30.486;2022-11-11T06:54:14;28.25;;;21.50;;
45252;SDS011;63171;50.520;30.486;2022-11-11T06:55:23;27.45;;;21.30;;
45252;SDS011;63171;50.520;30.486;2022-11-11T06:56:32;31.10;;;23.30;;
45252;SDS011;63171;50.520;30.486;2022-11-11T06:57:42;28.10;;;21.80;;
45252;SDS011;63171;50.520;30.486;2022-11-11T06:58:51;31.65;;;24.00;;
45252;SDS011;63171;50.520;30.486;2022-11-11T07:00:01;31.98;;;23.33;;
45252;SDS011;63171;50.520;30.486;2022-11-11T07:01:16;30.30;;;23.70;;
45252;SDS011;63171;50.520;30.486;2022-11-11T07:02:26;31.83;;;22.92;;
45252;SDS011;63171;50.520;30.486;2022-11-11T07:03:35;31.98;;;21.13;;
45252;SDS011;63171;50.520;30.486;2022-11-11T07:04:44;29.50;;;21.27;;
45252;SDS011;63171;50.520;30.486;2022-11-11T07:05:55;31.73;;;21.52;;
45252;SDS011;63171;50.520;30.486;2022-11-11T07:07:05;29.63;;;20.95;;
45252;SDS011;63171;50.520;30.486;2022-11-11T07:08:14;29.58;;;20.88;;
45252;SDS011;63171;50.520;30.486;2022-11-11T07:09:25;29.98;;;22.63;;
45252;SDS011;63171;50.520;30.486;2022-11-11T07:10:37;36.50;;;21.80;;
45252;SDS011;63171;50.520;30.486;2022-11-11T07:11:48;29.35;;;22.50;;
45252;SDS011;63171;50.520;30.486;2022-11-11T07:12:58;29.50;;;20.20;;